Capitol Logistics 14




PANC
Ted Stevens Anchorage International Airport
Anchorage, Alaska
RKSI
Incheon International Airport
Seoul,

Route Details

Aircraft Information
Group: Trans-Pacific Ops
Types: B744,B763,MD11
Route Data
Demand: D
Distance: 3296nm
Duration: 8h 50m
Recm'd Route: NODLE R220 NOSHO R220 NANZA R220 NODAN R217 GTC Y142 SAMON Y14 DRIPS Y16 SAPRA G585 SEL
Origin Wx: PANC 242153Z 32007KT 10SM FEW029 BKN100 11/03 A2997 RMK AO2 SLP149 T01110033
Dest. Wx: RKSI 242200Z 32001KT 5000 0600NW BCFG SCT002 15/15 Q1012 NOSIG
Notes:

Financial History
Total Freight: 554,210lbs
Average Load: 79,173lbs/flt
Fuel Used: 926,056lbs
Avg. Fuel Used: 132,294lbs/flt
Fuel Expense: $1,083,574
Avg. Fuel Expense: $154,796
Avg. Fuel Cost: $1.15/lbs
Total Gross Income: $1,712,303
Pilot Pay: $1,683
Total Expenses: $191,235
Total Revenue: $422,646
Average Revenue: $244,614.67